Time;durP1;ratioP1;P1;durP2;ratioP2;P2;SDS_P1;SDS_P2;PMS_P1;PMS_P2;Temp;Humidity;BMP_temperature;BMP_pressure;BME280_temperature;BME280_humidity;BME280_pressure;Samples;Min_cycle;Max_cycle;Signal;HPM_P1;HPM_P2
2022/12/03 00:01:48;;;;;;;;;49.50;35.75;;;;;;;;5103118;27;61808;-77
2022/12/03 00:04:13;;;;;;;;;51.00;36.50;;;;;;;;5105341;27;61791;-77
2022/12/03 00:06:38;;;;;;;;;50.00;32.25;;;;;;;;5105022;27;61822;-77
2022/12/03 00:09:03;;;;;;;;;37.00;27.25;;;;;;;;5104196;27;62702;-77
2022/12/03 00:11:29;;;;;;;;;44.00;32.75;;;;;;;;5105311;27;62115;-77
2022/12/03 00:13:54;;;;;;;;;37.25;33.00;;;;;;;;5104606;27;61897;-77
2022/12/03 00:16:19;;;;;;;;;35.00;29.75;;;;;;;;5105385;27;61906;-77
2022/12/03 00:18:45;;;;;;;;;49.25;32.50;;;;;;;;5103268;27;62658;-77
2022/12/03 00:21:10;;;;;;;;;39.50;28.75;;;;;;;;5105269;27;61783;-77
2022/12/03 00:23:35;;;;;;;;;36.75;30.75;;;;;;;;5103543;27;61948;-77
2022/12/03 00:26:00;;;;;;;;;47.25;33.00;;;;;;;;5103631;27;62214;-77
2022/12/03 00:28:26;;;;;;;;;54.50;36.00;;;;;;;;5104195;27;61963;-77
2022/12/03 00:30:52;;;;;;;;;34.75;26.50;;;;;;;;5104593;27;61763;-77
2022/12/03 00:33:18;;;;;;;;;38.25;28.75;;;;;;;;5104863;27;61731;-77
2022/12/03 00:35:43;;;;;;;;;35.75;31.25;;;;;;;;5104810;27;61938;-77
2022/12/03 00:38:08;;;;;;;;;34.50;26.75;;;;;;;;5102778;27;63502;-77
2022/12/03 00:40:34;;;;;;;;;37.50;35.25;;;;;;;;5104588;27;61768;-77
2022/12/03 00:42:59;;;;;;;;;36.00;30.25;;;;;;;;5104426;27;61724;-77
2022/12/03 00:45:24;;;;;;;;;38.00;32.50;;;;;;;;5103412;27;61959;-77
2022/12/03 00:47:49;;;;;;;;;40.75;31.25;;;;;;;;5103631;27;61868;-77
2022/12/03 00:50:15;;;;;;;;;35.50;29.00;;;;;;;;5104207;27;62036;-77
2022/12/03 00:52:40;;;;;;;;;38.75;26.00;;;;;;;;5103093;27;61856;-77
2022/12/03 00:55:06;;;;;;;;;38.50;31.00;;;;;;;;5104484;27;61782;-77
2022/12/03 00:57:31;;;;;;;;;44.00;33.75;;;;;;;;5102250;27;63368;-77
2022/12/03 00:59:56;;;;;;;;;40.75;30.25;;;;;;;;5103530;27;61827;-77
2022/12/03 01:02:21;;;;;;;;;46.00;33.25;;;;;;;;5104117;27;61894;-77
2022/12/03 01:04:47;;;;;;;;;39.50;22.75;;;;;;;;5104578;27;61910;-77
2022/12/03 01:07:12;;;;;;;;;40.50;29.25;;;;;;;;5103634;27;62831;-77
2022/12/03 01:09:37;;;;;;;;;62.75;41.75;;;;;;;;5103013;27;62231;-77
2022/12/03 01:12:03;;;;;;;;;62.50;42.25;;;;;;;;5102014;27;61998;-77
2022/12/03 01:14:28;;;;;;;;;52.00;39.25;;;;;;;;5103162;27;62119;-77
2022/12/03 01:16:54;;;;;;;;;45.00;33.75;;;;;;;;5103119;27;61972;-77
2022/12/03 01:19:19;;;;;;;;;39.50;34.25;;;;;;;;5101961;27;62118;-77
2022/12/03 01:21:46;;;;;;;;;41.25;25.75;;;;;;;;5103322;27;61892;-77
2022/12/03 01:24:12;;;;;;;;;43.00;31.50;;;;;;;;5102752;27;61718;-77
2022/12/03 01:26:37;;;;;;;;;40.75;28.25;;;;;;;;5103010;27;61736;-77
2022/12/03 01:29:03;;;;;;;;;34.75;29.75;;;;;;;;5103651;27;61739;-77
2022/12/03 01:34:12;;;;;;;;;53.50;34.75;;;;;;;;5103726;27;61851;-77
2022/12/03 01:36:38;;;;;;;;;44.75;30.25;;;;;;;;5101777;27;63086;-77
2022/12/03 01:39:03;;;;;;;;;46.50;33.50;;;;;;;;5102409;27;61908;-77
2022/12/03 01:41:29;;;;;;;;;46.50;31.25;;;;;;;;5103057;27;61731;-77
2022/12/03 01:43:55;;;;;;;;;32.25;26.75;;;;;;;;5104156;27;61740;-77
2022/12/03 01:46:22;;;;;;;;;44.75;35.25;;;;;;;;5101691;27;61856;-77
2022/12/03 01:48:49;;;;;;;;;39.00;29.25;;;;;;;;5103166;27;61625;-77
2022/12/03 01:51:14;;;;;;;;;41.25;28.75;;;;;;;;5103337;27;61665;-77
2022/12/03 01:53:40;;;;;;;;;36.75;31.25;;;;;;;;5103938;27;61771;-77
2022/12/03 01:56:05;;;;;;;;;43.00;38.00;;;;;;;;5102415;27;61694;-76
2022/12/03 01:58:31;;;;;;;;;51.25;30.75;;;;;;;;5102112;27;61825;-77
2022/12/03 02:01:09;;;;;;;;;35.25;30.75;;;;;;;;5102020;27;61900;-77
2022/12/03 02:03:35;;;;;;;;;36.00;34.25;;;;;;;;5101581;27;62161;-77
2022/12/03 02:06:00;;;;;;;;;52.25;36.75;;;;;;;;5102918;27;63111;-77
2022/12/03 02:08:25;;;;;;;;;43.25;31.75;;;;;;;;5102861;27;61764;-77
2022/12/03 02:10:52;;;;;;;;;44.00;31.75;;;;;;;;5103381;27;61924;-77
2022/12/03 02:13:18;;;;;;;;;42.50;33.25;;;;;;;;5101993;27;61769;-77
2022/12/03 02:15:43;;;;;;;;;44.00;29.50;;;;;;;;5100991;27;63164;-77
2022/12/03 02:18:09;;;;;;;;;38.50;31.25;;;;;;;;5102821;27;61822;-77
2022/12/03 02:20:38;;;;;;;;;31.25;24.25;;;;;;;;5102833;27;61903;-77
2022/12/03 02:23:12;;;;;;;;;47.25;28.00;;;;;;;;5102868;27;61754;-77
2022/12/03 02:25:37;;;;;;;;;39.00;29.25;;;;;;;;5102550;27;61740;-77
2022/12/03 02:28:05;;;;;;;;;38.75;32.50;;;;;;;;5101663;27;61763;-77
2022/12/03 02:30:30;;;;;;;;;41.00;27.00;;;;;;;;5101248;27;62174;-77
2022/12/03 02:32:57;;;;;;;;;51.75;34.25;;;;;;;;5102891;27;62114;-77
2022/12/03 02:35:24;;;;;;;;;36.50;29.50;;;;;;;;5102190;27;61756;-77
2022/12/03 02:37:51;;;;;;;;;39.25;32.25;;;;;;;;5102288;27;61881;-77
2022/12/03 02:40:19;;;;;;;;;52.25;37.00;;;;;;;;5101810;27;61929;-77
2022/12/03 02:42:45;;;;;;;;;50.75;31.00;;;;;;;;5101785;27;61860;-77
2022/12/03 02:45:16;;;;;;;;;37.75;29.50;;;;;;;;5101945;27;61871;-77
2022/12/03 02:47:47;;;;;;;;;42.25;34.50;;;;;;;;5102668;27;61871;-77
2022/12/03 02:50:14;;;;;;;;;39.50;35.75;;;;;;;;5101038;27;61975;-77
2022/12/03 02:52:40;;;;;;;;;46.50;34.75;;;;;;;;5100935;27;61831;-77
2022/12/03 02:55:06;;;;;;;;;43.75;33.25;;;;;;;;5102190;27;62858;-77
2022/12/03 02:57:32;;;;;;;;;44.25;31.75;;;;;;;;5102501;27;62313;-77
2022/12/03 02:59:57;;;;;;;;;35.75;29.75;;;;;;;;5102513;27;61782;-77
2022/12/03 03:02:23;;;;;;;;;32.75;25.25;;;;;;;;5101180;27;62396;-77
2022/12/03 03:04:48;;;;;;;;;32.00;25.50;;;;;;;;5100240;27;61808;-77
2022/12/03 03:07:13;;;;;;;;;41.25;35.50;;;;;;;;5100786;27;61858;-77
2022/12/03 03:09:39;;;;;;;;;37.50;27.75;;;;;;;;5102617;27;62403;-77
2022/12/03 03:12:05;;;;;;;;;35.50;24.00;;;;;;;;5101160;27;62158;-77
2022/12/03 03:14:31;;;;;;;;;43.25;27.75;;;;;;;;5101756;27;61869;-77
2022/12/03 03:16:56;;;;;;;;;42.00;29.50;;;;;;;;5101926;27;61864;-77
2022/12/03 03:19:23;;;;;;;;;35.75;30.00;;;;;;;;5100696;27;61905;-77
2022/12/03 03:21:48;;;;;;;;;34.75;30.00;;;;;;;;5102094;27;62061;-77
2022/12/03 03:24:14;;;;;;;;;35.75;25.00;;;;;;;;5100359;27;62911;-77
2022/12/03 03:26:39;;;;;;;;;39.00;25.00;;;;;;;;5100572;27;62089;-77
2022/12/03 03:29:05;;;;;;;;;34.00;26.00;;;;;;;;5102646;27;62420;-77
2022/12/03 03:31:30;;;;;;;;;40.25;30.75;;;;;;;;5102507;27;61692;-77
2022/12/03 03:33:55;;;;;;;;;36.75;25.50;;;;;;;;5100950;27;63000;-77
2022/12/03 03:36:21;;;;;;;;;36.25;27.75;;;;;;;;5101712;27;61882;-77
2022/12/03 03:38:46;;;;;;;;;36.50;24.50;;;;;;;;5101904;27;61992;-77
2022/12/03 03:41:13;;;;;;;;;33.50;26.75;;;;;;;;5102593;27;61673;-77
2022/12/03 03:43:40;;;;;;;;;35.00;23.50;;;;;;;;5100071;27;61839;-78
2022/12/03 03:46:05;;;;;;;;;32.50;27.75;;;;;;;;5105070;27;61714;-77
2022/12/03 03:48:33;;;;;;;;;29.75;27.50;;;;;;;;5103404;27;61726;-77
2022/12/03 03:50:59;;;;;;;;;29.25;23.50;;;;;;;;5105193;27;61809;-77
2022/12/03 03:53:24;;;;;;;;;43.25;31.00;;;;;;;;5103571;27;62570;-78
2022/12/03 03:55:50;;;;;;;;;53.00;34.50;;;;;;;;5103871;27;62095;-78
2022/12/03 03:58:15;;;;;;;;;32.25;24.50;;;;;;;;5104216;27;61893;-77
2022/12/03 04:00:44;;;;;;;;;38.50;26.75;;;;;;;;5104289;27;61922;-78
2022/12/03 04:03:10;;;;;;;;;40.00;29.75;;;;;;;;5102649;27;63503;-78
2022/12/03 04:05:35;;;;;;;;;33.75;26.25;;;;;;;;5104449;27;61883;-77
2022/12/03 04:08:01;;;;;;;;;34.50;27.25;;;;;;;;5103878;27;61820;-77
2022/12/03 04:13:10;;;;;;;;;51.00;33.50;;;;;;;;5104516;27;62430;-77
2022/12/03 04:15:35;;;;;;;;;40.25;27.25;;;;;;;;5103688;27;61893;-77
2022/12/03 04:20:44;;;;;;;;;31.50;22.50;;;;;;;;5104751;27;61952;-77
2022/12/03 04:23:10;;;;;;;;;30.75;21.75;;;;;;;;5102981;27;63656;-77
2022/12/03 04:35:41;;;;;;;;;27.50;26.75;;;;;;;;5104834;27;61800;-77
2022/12/03 04:36:46;;;;;;;;;31.00;25.50;;;;;;;;5080869;27;62134;-77
2022/12/03 04:39:11;;;;;;;;;31.25;23.00;;;;;;;;5103239;27;61793;-77
2022/12/03 04:41:36;;;;;;;;;42.50;27.50;;;;;;;;5103693;27;62186;-77
2022/12/03 04:46:45;;;;;;;;;28.50;23.00;;;;;;;;5104391;27;61761;-77
2022/12/03 04:49:11;;;;;;;;;32.00;28.50;;;;;;;;5102832;27;61782;-78
2022/12/03 04:51:36;;;;;;;;;35.00;24.25;;;;;;;;5104970;27;61890;-77
2022/12/03 04:54:02;;;;;;;;;26.00;22.00;;;;;;;;5104030;27;62852;-77
2022/12/03 04:56:27;;;;;;;;;39.75;24.75;;;;;;;;5101583;27;61993;-77
2022/12/03 04:58:52;;;;;;;;;35.00;26.50;;;;;;;;5103672;27;61898;-77
2022/12/03 05:01:17;;;;;;;;;34.00;27.00;;;;;;;;5100632;27;62200;-77
2022/12/03 05:03:43;;;;;;;;;44.00;25.50;;;;;;;;5102914;27;62677;-77
2022/12/03 05:06:08;;;;;;;;;37.50;24.50;;;;;;;;5104487;27;61783;-77
2022/12/03 05:08:33;;;;;;;;;39.75;28.50;;;;;;;;5102984;27;61864;-77
2022/12/03 05:10:58;;;;;;;;;40.75;23.50;;;;;;;;5104619;27;61761;-77
2022/12/03 05:13:24;;;;;;;;;34.50;26.50;;;;;;;;5101831;27;65454;-77
2022/12/03 05:15:49;;;;;;;;;33.50;27.25;;;;;;;;5104101;27;62032;-77
2022/12/03 05:18:14;;;;;;;;;37.25;27.00;;;;;;;;5102491;27;62012;-77
2022/12/03 05:20:42;;;;;;;;;28.00;21.50;;;;;;;;5103862;27;61994;-78
2022/12/03 05:23:11;;;;;;;;;39.50;25.25;;;;;;;;5103432;27;61913;-77
2022/12/03 05:25:37;;;;;;;;;35.00;23.25;;;;;;;;5102279;27;61971;-77
2022/12/03 05:28:02;;;;;;;;;23.25;22.75;;;;;;;;5102643;27;61981;-78
2022/12/03 05:30:27;;;;;;;;;29.75;20.75;;;;;;;;5102445;27;61767;-77
2022/12/03 05:32:53;;;;;;;;;30.00;22.75;;;;;;;;5101418;27;62793;-77
2022/12/03 05:35:19;;;;;;;;;26.50;19.75;;;;;;;;5102166;27;61898;-77
2022/12/03 05:37:46;;;;;;;;;33.00;24.75;;;;;;;;5102578;27;61765;-77
2022/12/03 05:40:11;;;;;;;;;30.00;22.25;;;;;;;;5102572;27;62033;-77
2022/12/03 05:42:52;;;;;;;;;36.75;26.25;;;;;;;;5101809;27;61824;-77
2022/12/03 05:45:18;;;;;;;;;21.00;20.00;;;;;;;;5102206;27;61754;-77
2022/12/03 05:47:43;;;;;;;;;28.25;19.00;;;;;;;;5102988;27;61734;-77
2022/12/03 05:50:08;;;;;;;;;33.00;24.50;;;;;;;;5103594;27;61951;-77
2022/12/03 05:52:34;;;;;;;;;32.50;19.25;;;;;;;;5101445;27;64346;-77
2022/12/03 05:54:59;;;;;;;;;36.25;23.50;;;;;;;;5103927;27;61723;-77
2022/12/03 05:57:24;;;;;;;;;23.50;22.00;;;;;;;;5102247;27;61979;-77
2022/12/03 05:59:49;;;;;;;;;24.75;22.00;;;;;;;;5103121;27;61681;-77
2022/12/03 06:02:15;;;;;;;;;36.75;25.50;;;;;;;;5100825;27;64319;-78
2022/12/03 06:04:40;;;;;;;;;22.50;21.00;;;;;;;;5101584;27;61728;-77
2022/12/03 06:07:05;;;;;;;;;32.75;22.50;;;;;;;;5103004;27;61881;-77
2022/12/03 06:09:31;;;;;;;;;25.75;21.50;;;;;;;;5103860;27;61724;-77
2022/12/03 06:11:56;;;;;;;;;34.25;27.00;;;;;;;;5101137;27;62080;-77
2022/12/03 06:14:21;;;;;;;;;29.75;23.75;;;;;;;;5103207;27;61995;-77
2022/12/03 06:16:46;;;;;;;;;30.75;22.50;;;;;;;;5102503;27;61694;-78
2022/12/03 06:19:12;;;;;;;;;30.00;22.75;;;;;;;;5101370;27;61890;-77
2022/12/03 06:21:37;;;;;;;;;27.75;22.00;;;;;;;;5102752;27;61731;-77
2022/12/03 06:24:02;;;;;;;;;26.75;18.50;;;;;;;;5103035;27;61798;-77
2022/12/03 06:26:29;;;;;;;;;26.25;22.00;;;;;;;;5102996;27;61800;-78
2022/12/03 06:28:54;;;;;;;;;23.25;18.00;;;;;;;;5103466;27;61712;-77
2022/12/03 06:31:19;;;;;;;;;26.00;17.25;;;;;;;;5100386;27;64579;-77
2022/12/03 06:33:44;;;;;;;;;29.75;25.50;;;;;;;;5102544;27;61750;-77
2022/12/03 06:36:10;;;;;;;;;30.00;19.25;;;;;;;;5101832;27;62083;-77
2022/12/03 06:38:35;;;;;;;;;20.50;20.50;;;;;;;;5103200;27;61728;-77
2022/12/03 06:41:00;;;;;;;;;24.75;18.25;;;;;;;;5102095;27;61902;-77
2022/12/03 06:43:26;;;;;;;;;33.50;23.00;;;;;;;;5101466;27;62046;-77
2022/12/03 06:45:51;;;;;;;;;33.50;23.50;;;;;;;;5100761;27;61909;-77
2022/12/03 06:48:17;;;;;;;;;28.00;22.00;;;;;;;;5101389;27;61874;-77
2022/12/03 06:50:42;;;;;;;;;38.50;22.50;;;;;;;;5100349;27;64349;-81
2022/12/03 06:53:07;;;;;;;;;34.50;25.00;;;;;;;;5102519;27;61782;-79
2022/12/03 06:55:33;;;;;;;;;23.25;18.75;;;;;;;;5103272;27;61768;-79
2022/12/03 06:57:58;;;;;;;;;25.25;21.50;;;;;;;;5101305;27;62101;-77
2022/12/03 07:00:24;;;;;;;;;32.00;22.50;;;;;;;;5101679;27;61771;-76
2022/12/03 07:02:49;;;;;;;;;28.75;22.00;;;;;;;;5101971;27;61888;-77
2022/12/03 07:05:14;;;;;;;;;27.00;18.00;;;;;;;;5102724;27;62072;-78
2022/12/03 07:07:40;;;;;;;;;25.75;22.00;;;;;;;;5101542;27;61806;-78
2022/12/03 07:10:06;;;;;;;;;34.50;22.00;;;;;;;;5101779;27;62914;-78
2022/12/03 07:12:32;;;;;;;;;23.25;21.50;;;;;;;;5102465;27;62044;-76
2022/12/03 07:14:57;;;;;;;;;28.50;23.50;;;;;;;;5100850;27;62088;-77
2022/12/03 07:17:23;;;;;;;;;23.00;19.25;;;;;;;;5100582;27;62125;-77
2022/12/03 07:19:48;;;;;;;;;30.00;21.50;;;;;;;;5101039;27;64552;-77
2022/12/03 07:22:13;;;;;;;;;28.00;22.75;;;;;;;;5104618;27;61861;-77
2022/12/03 07:24:39;;;;;;;;;23.25;17.75;;;;;;;;5104516;27;61883;-77
2022/12/03 07:27:04;;;;;;;;;24.00;22.50;;;;;;;;5106017;27;61886;-77
2022/12/03 07:29:29;;;;;;;;;26.50;21.50;;;;;;;;5103713;27;61968;-77
2022/12/03 07:31:54;;;;;;;;;23.50;19.00;;;;;;;;5105470;27;61884;-77
2022/12/03 07:34:20;;;;;;;;;23.00;19.25;;;;;;;;5105692;27;62063;-77
2022/12/03 07:36:45;;;;;;;;;26.50;23.25;;;;;;;;5106059;27;61842;-77
2022/12/03 07:39:11;;;;;;;;;21.75;17.75;;;;;;;;5105103;27;62789;-77
2022/12/03 07:41:36;;;;;;;;;30.25;18.50;;;;;;;;5105599;27;61939;-77
2022/12/03 07:44:01;;;;;;;;;30.00;22.00;;;;;;;;5105243;27;61934;-77
2022/12/03 07:46:26;;;;;;;;;27.50;18.25;;;;;;;;5105787;27;61970;-77
2022/12/03 07:48:52;;;;;;;;;19.25;17.50;;;;;;;;5104558;27;63048;-77
2022/12/03 07:51:17;;;;;;;;;27.25;20.75;;;;;;;;5104913;27;61855;-77
2022/12/03 07:53:42;;;;;;;;;28.50;22.50;;;;;;;;5104410;27;61844;-80
2022/12/03 07:56:08;;;;;;;;;21.75;19.00;;;;;;;;5104631;27;62756;-78
2022/12/03 07:58:33;;;;;;;;;24.25;19.25;;;;;;;;5104445;27;62253;-76
2022/12/03 08:00:58;;;;;;;;;28.50;20.25;;;;;;;;5103915;27;62188;-75
2022/12/03 08:03:23;;;;;;;;;23.75;21.75;;;;;;;;5104757;27;61922;-76
2022/12/03 08:05:49;;;;;;;;;24.75;19.75;;;;;;;;5105663;27;61993;-79
2022/12/03 08:08:14;;;;;;;;;15.50;11.75;;;;;;;;5103029;27;61976;-76
2022/12/03 08:10:39;;;;;;;;;26.75;18.50;;;;;;;;5103362;27;62082;-79
2022/12/03 08:13:16;;;;;;;;;23.75;22.00;;;;;;;;5102097;27;61883;-76
2022/12/03 08:15:41;;;;;;;;;29.50;22.25;;;;;;;;5103745;27;61766;-79
2022/12/03 08:18:12;;;;;;;;;23.75;18.75;;;;;;;;5102490;27;62119;-79
2022/12/03 08:20:38;;;;;;;;;48.25;31.50;;;;;;;;5100384;27;61980;-79
2022/12/03 08:23:08;;;;;;;;;25.25;21.25;;;;;;;;5103871;27;61914;-79
2022/12/03 08:25:34;;;;;;;;;33.75;24.25;;;;;;;;5101489;27;61706;-79
2022/12/03 08:28:01;;;;;;;;;45.00;30.50;;;;;;;;5102160;27;62999;-78
2022/12/03 08:30:26;;;;;;;;;32.50;28.00;;;;;;;;5103739;27;61700;-79
2022/12/03 08:32:52;;;;;;;;;45.25;34.25;;;;;;;;5103778;27;61858;-78
2022/12/03 08:35:22;;;;;;;;;33.00;23.25;;;;;;;;5103910;27;61959;-79
2022/12/03 08:37:50;;;;;;;;;39.00;25.50;;;;;;;;5103642;27;61789;-78
2022/12/03 08:40:20;;;;;;;;;49.75;41.25;;;;;;;;5102533;27;61899;-78
2022/12/03 08:42:46;;;;;;;;;54.00;35.00;;;;;;;;5102786;27;61943;-78
2022/12/03 08:45:38;;;;;;;;;52.75;40.00;;;;;;;;5102950;27;62125;-78
2022/12/03 08:48:13;;;;;;;;;30.25;22.50;;;;;;;;5102505;27;62942;-78
2022/12/03 08:50:40;;;;;;;;;43.50;34.50;;;;;;;;5102866;27;62061;-78
2022/12/03 08:53:24;;;;;;;;;37.75;32.00;;;;;;;;5100903;27;61850;-79
2022/12/03 08:55:53;;;;;;;;;33.00;20.50;;;;;;;;5083424;27;61768;-78
2022/12/03 08:58:22;;;;;;;;;25.50;21.25;;;;;;;;5083386;28;61783;-78
2022/12/03 09:00:53;;;;;;;;;25.25;19.00;;;;;;;;5100407;27;61864;-78
2022/12/03 09:03:19;;;;;;;;;33.25;23.50;;;;;;;;5102836;27;61808;-78
2022/12/03 09:05:44;;;;;;;;;36.50;23.00;;;;;;;;5103973;27;61719;-79
2022/12/03 09:08:10;;;;;;;;;32.75;23.75;;;;;;;;5101598;27;63461;-78
2022/12/03 09:10:35;;;;;;;;;19.75;17.75;;;;;;;;5102002;27;61884;-79
2022/12/03 09:13:00;;;;;;;;;27.25;20.00;;;;;;;;5103086;27;61993;-80
2022/12/03 09:15:26;;;;;;;;;33.25;23.25;;;;;;;;5103322;27;62293;-79
2022/12/03 09:17:51;;;;;;;;;23.75;18.50;;;;;;;;5102590;27;62978;-82
2022/12/03 09:20:16;;;;;;;;;34.25;24.25;;;;;;;;5103230;27;61917;-80
2022/12/03 09:22:42;;;;;;;;;25.75;14.75;;;;;;;;5102342;27;62023;-82
2022/12/03 09:25:07;;;;;;;;;39.00;34.25;;;;;;;;5103372;27;61940;-82
2022/12/03 09:27:32;;;;;;;;;24.50;22.50;;;;;;;;5101549;27;63634;-81
2022/12/03 09:29:58;;;;;;;;;36.00;27.50;;;;;;;;5104136;27;62136;-82
2022/12/03 09:32:23;;;;;;;;;31.50;24.00;;;;;;;;5103662;27;62066;-82
2022/12/03 09:34:48;;;;;;;;;14.25;13.00;;;;;;;;5104208;27;61724;-81
2022/12/03 09:37:13;;;;;;;;;27.25;20.00;;;;;;;;5103315;27;62589;-82
2022/12/03 09:39:39;;;;;;;;;30.25;24.50;;;;;;;;5103238;27;61870;-81
2022/12/03 09:42:04;;;;;;;;;26.50;19.25;;;;;;;;5101753;27;61888;-81
2022/12/03 09:44:31;;;;;;;;;19.50;15.25;;;;;;;;5102848;27;61893;-81
2022/12/03 09:46:58;;;;;;;;;24.00;19.75;;;;;;;;5102611;27;63073;-81
2022/12/03 09:49:25;;;;;;;;;38.00;31.00;;;;;;;;5102730;27;61888;-81
2022/12/03 09:51:50;;;;;;;;;29.25;22.25;;;;;;;;5103569;27;61906;-81
2022/12/03 09:54:21;;;;;;;;;25.00;19.50;;;;;;;;5102264;27;61791;-81
2022/12/03 09:56:46;;;;;;;;;25.00;19.25;;;;;;;;5102962;27;61972;-81
2022/12/03 09:59:13;;;;;;;;;17.50;14.75;;;;;;;;5103537;27;61833;-81
2022/12/03 10:01:38;;;;;;;;;22.75;18.75;;;;;;;;5102047;27;61702;-82
2022/12/03 10:04:03;;;;;;;;;31.25;27.00;;;;;;;;5101856;27;62103;-81
2022/12/03 10:06:29;;;;;;;;;22.50;18.00;;;;;;;;5102734;27;61899;-82
2022/12/03 10:08:55;;;;;;;;;38.50;28.75;;;;;;;;5101877;27;62555;-82
2022/12/03 10:11:22;;;;;;;;;23.50;19.25;;;;;;;;5103523;27;61988;-81
2022/12/03 10:13:48;;;;;;;;;29.50;23.50;;;;;;;;5102125;27;62094;-81
2022/12/03 10:16:15;;;;;;;;;26.25;24.00;;;;;;;;5100929;27;61840;-82
2022/12/03 10:18:42;;;;;;;;;37.25;22.75;;;;;;;;5101253;27;61999;-82
2022/12/03 10:21:22;;;;;;;;;28.25;23.00;;;;;;;;5101881;27;61728;-82
2022/12/03 10:23:49;;;;;;;;;21.75;16.50;;;;;;;;5101540;27;61817;-82
2022/12/03 10:26:15;;;;;;;;;13.25;11.00;;;;;;;;5102174;27;61766;-81
2022/12/03 10:28:42;;;;;;;;;18.25;14.25;;;;;;;;5101946;27;61765;-81
2022/12/03 10:31:09;;;;;;;;;20.25;12.00;;;;;;;;5103063;27;61683;-81
2022/12/03 10:33:35;;;;;;;;;24.25;15.00;;;;;;;;5101847;27;61947;-81
2022/12/03 10:36:13;;;;;;;;;18.25;15.25;;;;;;;;5100094;27;63348;-81
2022/12/03 10:38:38;;;;;;;;;20.25;14.25;;;;;;;;5101198;27;61888;-77
2022/12/03 10:41:18;;;;;;;;;25.00;22.75;;;;;;;;5100427;27;61959;-80
2022/12/03 10:43:44;;;;;;;;;43.00;24.00;;;;;;;;5102661;27;61888;-79
2022/12/03 10:46:10;;;;;;;;;52.25;32.75;;;;;;;;5100453;27;64987;-81
2022/12/03 10:48:35;;;;;;;;;16.75;12.50;;;;;;;;5099632;27;62059;-80
2022/12/03 10:51:19;;;;;;;;;39.75;29.75;;;;;;;;5100396;27;61852;-79
2022/12/03 10:53:45;;;;;;;;;38.00;26.75;;;;;;;;5103118;27;61949;-79
2022/12/03 10:56:13;;;;;;;;;19.75;16.75;;;;;;;;5101755;27;62988;-78
2022/12/03 10:58:39;;;;;;;;;26.75;20.25;;;;;;;;5102334;27;62004;-81
2022/12/03 11:01:15;;;;;;;;;17.75;13.75;;;;;;;;5100125;27;61775;-81
2022/12/03 11:03:41;;;;;;;;;23.75;16.75;;;;;;;;5101987;27;61941;-81
2022/12/03 11:06:10;;;;;;;;;21.75;14.75;;;;;;;;5100496;27;63009;-81
2022/12/03 11:08:36;;;;;;;;;20.75;18.00;;;;;;;;5102151;27;62000;-80
2022/12/03 11:11:15;;;;;;;;;20.00;17.25;;;;;;;;5100679;27;61965;-81
2022/12/03 11:13:40;;;;;;;;;19.75;16.50;;;;;;;;5100577;27;61773;-77
2022/12/03 11:16:07;;;;;;;;;22.00;16.00;;;;;;;;5101290;27;62566;-77
2022/12/03 11:18:35;;;;;;;;;22.25;18.75;;;;;;;;5101496;27;61985;-76
2022/12/03 11:21:02;;;;;;;;;20.00;17.25;;;;;;;;5100599;27;61870;-76
2022/12/03 11:23:47;;;;;;;;;11.75;7.00;;;;;;;;5101167;27;62229;-76
2022/12/03 11:26:17;;;;;;;;;18.25;15.00;;;;;;;;5101555;27;63016;-76
2022/12/03 11:28:46;;;;;;;;;21.75;15.25;;;;;;;;5100895;27;61892;-78
2022/12/03 11:31:30;;;;;;;;;22.50;14.00;;;;;;;;5100892;27;61855;-81
2022/12/03 11:34:14;;;;;;;;;22.50;17.25;;;;;;;;5099009;27;61789;-80
2022/12/03 11:36:59;;;;;;;;;20.25;15.00;;;;;;;;5098448;27;63018;-79
2022/12/03 11:39:43;;;;;;;;;14.50;13.00;;;;;;;;5090061;27;62025;-80
2022/12/03 11:42:24;;;;;;;;;16.50;10.25;;;;;;;;5099169;27;62046;-78
2022/12/03 11:45:05;;;;;;;;;25.25;18.75;;;;;;;;5098844;27;61766;-80
2022/12/03 11:47:50;;;;;;;;;19.25;16.50;;;;;;;;5097780;27;61900;-80
2022/12/03 11:50:22;;;;;;;;;25.75;16.00;;;;;;;;5091312;27;62151;-78
2022/12/03 11:52:55;;;;;;;;;21.50;15.00;;;;;;;;5099545;27;61887;-77
2022/12/03 11:55:29;;;;;;;;;16.75;15.00;;;;;;;;5101179;27;61806;-78
2022/12/03 11:57:59;;;;;;;;;16.50;15.25;;;;;;;;5097710;27;62505;-77
2022/12/03 12:00:24;;;;;;;;;15.00;10.50;;;;;;;;5099935;27;61852;-77
2022/12/03 12:02:51;;;;;;;;;19.00;15.75;;;;;;;;5100120;27;61817;-76
2022/12/03 12:05:36;;;;;;;;;25.25;14.50;;;;;;;;5100638;27;62155;-75
2022/12/03 12:08:02;;;;;;;;;20.00;15.25;;;;;;;;5101991;27;61933;-76
2022/12/03 12:10:40;;;;;;;;;24.75;18.75;;;;;;;;5102600;27;61995;-79
2022/12/03 12:13:05;;;;;;;;;31.00;18.00;;;;;;;;5101170;27;61870;-79
2022/12/03 12:15:37;;;;;;;;;19.75;16.00;;;;;;;;5101920;27;62388;-78
2022/12/03 12:18:21;;;;;;;;;19.25;15.00;;;;;;;;5100901;27;62297;-80
2022/12/03 12:20:46;;;;;;;;;20.25;11.50;;;;;;;;5104094;27;61856;-82
2022/12/03 12:23:26;;;;;;;;;14.75;12.50;;;;;;;;5103645;27;61805;-79
2022/12/03 12:25:52;;;;;;;;;17.75;15.00;;;;;;;;5105527;27;61668;-79
2022/12/03 12:28:17;;;;;;;;;24.25;16.50;;;;;;;;5104576;27;62794;-78
2022/12/03 12:30:42;;;;;;;;;16.50;16.50;;;;;;;;5104662;27;61703;-80
2022/12/03 12:33:21;;;;;;;;;18.75;16.75;;;;;;;;5104305;27;61890;-82
2022/12/03 12:35:47;;;;;;;;;23.75;18.00;;;;;;;;5103566;27;61809;-78
2022/12/03 12:38:16;;;;;;;;;21.50;16.75;;;;;;;;5104453;27;61822;-82
2022/12/03 12:40:44;;;;;;;;;19.00;15.50;;;;;;;;5104582;27;61754;-76
2022/12/03 12:43:09;;;;;;;;;13.50;13.00;;;;;;;;5103249;27;61933;-78
2022/12/03 12:45:36;;;;;;;;;26.50;20.50;;;;;;;;5104972;27;61874;-79
2022/12/03 12:48:13;;;;;;;;;26.25;21.50;;;;;;;;5103416;27;61770;-76
2022/12/03 12:50:39;;;;;;;;;16.75;14.50;;;;;;;;5104362;27;61897;-78
2022/12/03 12:53:10;;;;;;;;;18.50;14.25;;;;;;;;5125365;27;61781;-79
2022/12/03 12:55:39;;;;;;;;;20.75;18.50;;;;;;;;5125519;27;61871;-76
2022/12/03 12:58:07;;;;;;;;;14.00;12.25;;;;;;;;5123413;27;63243;-81
2022/12/03 13:00:33;;;;;;;;;18.25;16.25;;;;;;;;5108828;27;61882;-76
2022/12/03 13:03:02;;;;;;;;;22.25;18.00;;;;;;;;5103480;27;61798;-78
2022/12/03 13:05:38;;;;;;;;;24.75;21.50;;;;;;;;5104621;27;61971;-76
2022/12/03 13:08:15;;;;;;;;;24.75;22.75;;;;;;;;5102115;27;63391;-77
2022/12/03 13:10:41;;;;;;;;;35.25;29.25;;;;;;;;5104313;27;61905;-78
2022/12/03 13:13:11;;;;;;;;;22.75;22.25;;;;;;;;5102990;27;61921;-76
2022/12/03 13:15:50;;;;;;;;;43.25;35.00;;;;;;;;5104223;27;61871;-77
2022/12/03 13:18:22;;;;;;;;;30.25;22.75;;;;;;;;5098413;27;62817;-75
2022/12/03 13:20:47;;;;;;;;;18.50;15.75;;;;;;;;5101387;27;61829;-76
2022/12/03 13:23:17;;;;;;;;;18.75;17.75;;;;;;;;5099816;27;62085;-77
2022/12/03 13:25:43;;;;;;;;;29.50;20.00;;;;;;;;5111067;27;61814;-78
2022/12/03 13:28:08;;;;;;;;;20.00;15.00;;;;;;;;5109543;27;64693;-79
2022/12/03 13:30:33;;;;;;;;;23.75;19.50;;;;;;;;5116890;27;61822;-78
2022/12/03 13:33:08;;;;;;;;;21.25;15.25;;;;;;;;5108091;27;61797;-78
2022/12/03 13:35:34;;;;;;;;;26.75;19.00;;;;;;;;5097447;27;61935;-78
2022/12/03 13:38:01;;;;;;;;;23.75;20.50;;;;;;;;5105474;27;61871;-78
2022/12/03 13:40:30;;;;;;;;;16.50;14.50;;;;;;;;5102522;27;61903;-78
2022/12/03 13:42:56;;;;;;;;;19.50;14.00;;;;;;;;5101055;27;61697;-78
2022/12/03 13:45:23;;;;;;;;;15.25;10.00;;;;;;;;5103451;27;61787;-79
2022/12/03 13:47:52;;;;;;;;;11.25;11.25;;;;;;;;5102856;27;61977;-79
2022/12/03 13:50:23;;;;;;;;;13.25;11.00;;;;;;;;5101577;27;61966;-78
2022/12/03 13:52:48;;;;;;;;;16.25;11.00;;;;;;;;5107184;27;61866;-78
2022/12/03 13:55:21;;;;;;;;;18.75;14.75;;;;;;;;5110089;27;61688;-78
2022/12/03 13:57:46;;;;;;;;;19.75;17.75;;;;;;;;5099253;27;62053;-78
2022/12/03 14:00:12;;;;;;;;;28.25;19.75;;;;;;;;5106247;27;62025;-78
2022/12/03 14:02:37;;;;;;;;;18.25;12.25;;;;;;;;5116736;27;61903;-78
2022/12/03 14:05:03;;;;;;;;;18.00;18.00;;;;;;;;5115339;27;62015;-78
2022/12/03 14:07:28;;;;;;;;;29.75;21.00;;;;;;;;5110191;27;63700;-78
2022/12/03 14:09:53;;;;;;;;;28.25;21.75;;;;;;;;5111041;27;61790;-78
2022/12/03 14:12:25;;;;;;;;;22.25;19.75;;;;;;;;5113259;27;61754;-78
2022/12/03 14:14:50;;;;;;;;;21.25;15.50;;;;;;;;5112750;27;61824;-77
2022/12/03 14:17:15;;;;;;;;;28.75;17.00;;;;;;;;5103200;27;63190;-77
2022/12/03 14:19:40;;;;;;;;;16.25;15.25;;;;;;;;5112810;27;61768;-77
2022/12/03 14:22:08;;;;;;;;;27.25;23.25;;;;;;;;5116267;27;62606;-79
2022/12/03 14:24:33;;;;;;;;;20.50;15.00;;;;;;;;5109589;27;61822;-82
2022/12/03 14:26:59;;;;;;;;;28.50;24.00;;;;;;;;5094371;27;63214;-79
2022/12/03 14:29:24;;;;;;;;;12.50;12.50;;;;;;;;5100196;27;61646;-79
2022/12/03 14:31:49;;;;;;;;;40.75;37.50;;;;;;;;5099298;27;61925;-79
2022/12/03 14:34:14;;;;;;;;;26.50;21.75;;;;;;;;5102598;27;61989;-79
2022/12/03 14:36:40;;;;;;;;;18.00;15.00;;;;;;;;5100096;27;64686;-79